Aviation Digital Data Service (ADDS)

Output produced by METARs form (1837 UTC 19 August 2019)
found at http://www.aviationweather.gov/metar/data/
 
Forecast for: RPMR (GEN SANTOS , PH)
Text: TAF RPMR 191700Z 1918/2018 17007KT 9999 FEW018 SCT080 BKN250
Forecast period: 1800 UTC 19 August 2019 to 1800 UTC 20 August 2019
Forecast type: FROM: standard forecast or significant change
Winds: from the S (170 degrees) at 8 MPH (7 knots; 3.6 m/s)
Visibility: 6 or more miles 10+ km)
Ceiling: 25000 feet AGL
Clouds: few clouds at 1800 feet AGL
scattered clouds at 8000 feet AGL
broken clouds at 25000 feet AGL
Weather: no significant weather forecast for this period
Text: TEMPO 1918/1924 VRB02KT 8000 -SHRA FEW017CB SCT018 BKN080
Forecast period: 1800 UTC 19 August 2019 to 0000 UTC 20 August 2019
Forecast type: TEMPORARY: The following changes expected for less than half the time period
Winds: variable direction winds at 2 MPH (2 knots; 1.0 m/s)
Visibility: 5 miles (8 km)
Ceiling: 8000 feet AGL
Clouds: few clouds at 1700 feet AGL
scattered clouds at 1800 feet AGL
broken clouds at 8000 feet AGL
Weather: -SHRA  (light rain showers)